Time;durP1;ratioP1;P1;durP2;ratioP2;P2;SDS_P1;SDS_P2;PMS_P1;PMS_P2;Temp;Humidity;BMP_temperature;BMP_pressure;BME280_temperature;BME280_humidity;BME280_pressure;Samples;Min_cycle;Max_cycle;Signal;HPM_P1;HPM_P2
2023/01/14 00:01:29;;;;;;;1.57;1.10;;;7.00;98.00;;;;;;5034445;28;20463;-71
2023/01/14 00:03:56;;;;;;;1.20;1.20;;;7.10;98.00;;;;;;5034398;28;20463;-71
2023/01/14 00:06:25;;;;;;;2.40;1.40;;;7.10;98.00;;;;;;5034571;28;20477;-72
2023/01/14 00:08:58;;;;;;;1.10;1.00;;;7.10;98.00;;;;;;5034265;28;20482;-71
2023/01/14 00:14:06;;;;;;;1.20;1.03;;;7.10;98.00;;;;;;5033385;28;20451;-71
2023/01/14 00:16:33;;;;;;;1.90;1.50;;;7.10;98.00;;;;;;5034361;28;21123;-72
2023/01/14 00:19:00;;;;;;;1.20;1.00;;;7.20;98.00;;;;;;5034420;28;20462;-71
2023/01/14 00:21:27;;;;;;;1.20;0.90;;;7.20;98.00;;;;;;5034116;28;20454;-72
2023/01/14 00:23:57;;;;;;;1.70;1.10;;;7.20;98.00;;;;;;5034378;28;20459;-72
2023/01/14 00:26:25;;;;;;;1.70;1.13;;;7.20;98.00;;;;;;5034192;28;20455;-72
2023/01/14 00:28:53;;;;;;;1.20;1.03;;;7.20;98.00;;;;;;5034428;28;20577;-71
2023/01/14 00:31:21;;;;;;;1.10;1.00;;;7.20;98.00;;;;;;5034117;28;20458;-72
2023/01/14 00:33:49;;;;;;;1.50;1.17;;;7.20;98.00;;;;;;5034002;28;20506;-71
2023/01/14 00:36:18;;;;;;;1.20;1.10;;;7.20;98.00;;;;;;5034066;28;20462;-71
2023/01/14 00:38:45;;;;;;;1.83;1.40;;;7.10;98.00;;;;;;5033986;28;21106;-71
2023/01/14 00:41:16;;;;;;;1.27;1.20;;;7.00;98.00;;;;;;5033702;28;20475;-71
2023/01/14 00:43:44;;;;;;;4.37;1.53;;;7.10;98.00;;;;;;5033999;28;20453;-71
2023/01/14 00:46:14;;;;;;;1.70;1.30;;;7.10;98.00;;;;;;5033621;28;20455;-71
2023/01/14 00:48:42;;;;;;;1.30;1.13;;;7.00;98.00;;;;;;5033417;28;20458;-71
2023/01/14 00:51:09;;;;;;;1.13;1.07;;;7.00;98.00;;;;;;5033171;28;20839;-71
2023/01/14 00:53:38;;;;;;;3.90;1.43;;;6.90;98.00;;;;;;5033313;28;20497;-71
2023/01/14 00:56:05;;;;;;;1.10;1.00;;;6.90;98.00;;;;;;5033546;28;20459;-71
2023/01/14 00:58:34;;;;;;;2.03;1.03;;;6.90;98.00;;;;;;5033299;28;20457;-72
2023/01/14 01:01:01;;;;;;;12.23;1.50;;;6.90;98.00;;;;;;5033146;28;20514;-71
2023/01/14 01:03:28;;;;;;;1.50;1.10;;;6.90;98.00;;;;;;5033258;28;20834;-71
2023/01/14 01:05:56;;;;;;;1.40;1.27;;;6.80;98.00;;;;;;5033310;28;20549;-71
2023/01/14 01:08:24;;;;;;;1.17;1.07;;;6.80;98.00;;;;;;5033204;28;20463;-71
2023/01/14 01:10:54;;;;;;;6.43;1.50;;;6.80;98.00;;;;;;5033435;28;20451;-71
2023/01/14 01:13:23;;;;;;;1.10;1.00;;;6.80;98.00;;;;;;5033245;28;20493;-71
2023/01/14 01:15:53;;;;;;;1.40;1.03;;;6.80;98.00;;;;;;5033244;28;20589;-71
2023/01/14 01:18:20;;;;;;;1.40;1.33;;;6.80;98.00;;;;;;5033168;28;20456;-71
2023/01/14 01:20:48;;;;;;;2.20;1.53;;;6.90;98.00;;;;;;5033184;28;20459;-71
2023/01/14 01:23:16;;;;;;;1.20;1.00;;;6.90;98.00;;;;;;5033247;28;20454;-71
2023/01/14 01:25:43;;;;;;;1.97;1.40;;;6.80;98.00;;;;;;5033117;28;20459;-71
2023/01/14 01:28:10;;;;;;;9.63;1.40;;;6.90;98.00;;;;;;5033037;28;20464;-71
2023/01/14 01:30:37;;;;;;;1.67;1.17;;;6.90;98.00;;;;;;5032925;28;20555;-71
2023/01/14 01:33:06;;;;;;;1.37;1.10;;;6.80;98.00;;;;;;5033050;28;20482;-71
2023/01/14 01:35:33;;;;;;;1.23;1.10;;;6.70;98.00;;;;;;5032651;28;20466;-71
2023/01/14 01:38:00;;;;;;;1.20;1.00;;;6.80;98.00;;;;;;5032918;28;20459;-71
2023/01/14 01:40:29;;;;;;;1.40;1.27;;;6.70;98.00;;;;;;5032376;28;20460;-71
2023/01/14 01:42:56;;;;;;;1.63;1.23;;;6.70;98.00;;;;;;5032580;28;20463;-71
2023/01/14 01:45:31;;;;;;;1.47;1.10;;;6.70;98.00;;;;;;5032486;28;20462;-71
2023/01/14 01:48:04;;;;;;;1.70;1.10;;;6.60;98.00;;;;;;5032419;28;20945;-71
2023/01/14 01:50:33;;;;;;;1.73;1.40;;;6.60;98.00;;;;;;5032430;28;20458;-71
2023/01/14 01:53:02;;;;;;;1.20;1.10;;;6.60;98.00;;;;;;5032398;28;20488;-71
2023/01/14 01:55:32;;;;;;;1.10;1.00;;;6.60;98.00;;;;;;5032340;28;20462;-72
2023/01/14 01:57:59;;;;;;;4.17;1.47;;;6.60;98.00;;;;;;5032342;28;20493;-71
2023/01/14 02:00:27;;;;;;;3.73;1.43;;;6.60;98.00;;;;;;5031517;28;20950;-71
2023/01/14 02:03:00;;;;;;;2.53;1.40;;;6.60;98.00;;;;;;5013088;28;20834;-72
2023/01/14 02:05:31;;;;;;;1.87;1.47;;;6.60;98.00;;;;;;5031598;28;20473;-71
2023/01/14 02:08:01;;;;;;;1.30;1.07;;;6.60;98.00;;;;;;5032300;28;20467;-71
2023/01/14 02:10:39;;;;;;;1.20;1.00;;;6.70;98.00;;;;;;5032128;28;20464;-71
2023/01/14 02:13:20;;;;;;;1.20;1.00;;;6.70;98.00;;;;;;5032023;28;20484;-72
2023/01/14 02:16:00;;;;;;;7.13;1.30;;;6.70;98.00;;;;;;5032240;28;20466;-71
2023/01/14 02:18:43;;;;;;;1.20;1.10;;;6.60;98.00;;;;;;5032164;28;20940;-71
2023/01/14 02:21:18;;;;;;;1.20;1.00;;;6.70;98.00;;;;;;5032293;28;20524;-71
2023/01/14 02:24:21;;;;;;;1.17;0.97;;;6.60;98.00;;;;;;5032220;28;20451;-71
2023/01/14 02:27:25;;;;;;;1.10;1.00;;;6.70;98.00;;;;;;5032010;28;20462;-71
2023/01/14 02:30:07;;;;;;;1.10;1.00;;;6.60;98.00;;;;;;5019362;28;20466;-71
2023/01/14 02:32:39;;;;;;;7.53;1.70;;;6.70;98.00;;;;;;5031842;28;20485;-71
2023/01/14 02:35:15;;;;;;;1.13;1.10;;;6.60;98.00;;;;;;5032153;28;20467;-71
2023/01/14 02:37:52;;;;;;;1.13;0.97;;;6.60;98.00;;;;;;5032415;28;20470;-71
2023/01/14 02:40:24;;;;;;;1.20;1.20;;;6.60;98.00;;;;;;5031423;28;20457;-71
2023/01/14 02:45:47;;;;;;;1.30;1.03;;;6.60;98.00;;;;;;5031674;28;20532;-71
2023/01/14 02:48:17;;;;;;;1.10;0.90;;;6.50;98.00;;;;;;5031778;28;20949;-71
2023/01/14 02:50:44;;;;;;;3.67;1.50;;;6.40;98.00;;;;;;5031577;28;20474;-72
2023/01/14 02:53:15;;;;;;;1.10;0.90;;;6.50;98.00;;;;;;5014207;28;20494;-71
2023/01/14 02:55:43;;;;;;;1.63;1.60;;;6.50;98.00;;;;;;5031586;28;20459;-71
2023/01/14 02:58:24;;;;;;;5.40;1.43;;;6.50;98.00;;;;;;5031435;28;20480;-71
2023/01/14 03:01:03;;;;;;;1.10;1.00;;;6.50;98.00;;;;;;5031786;28;20875;-71
2023/01/14 03:03:42;;;;;;;1.20;1.07;;;6.50;98.00;;;;;;5031656;28;20465;-71
2023/01/14 03:06:26;;;;;;;1.23;1.17;;;6.50;98.00;;;;;;5031458;28;20466;-71
2023/01/14 03:08:59;;;;;;;2.27;1.20;;;6.40;98.00;;;;;;5031624;28;20471;-71
2023/01/14 03:11:39;;;;;;;1.30;1.00;;;6.50;98.00;;;;;;5031537;28;20470;-71
2023/01/14 03:14:15;;;;;;;4.10;1.10;;;6.40;98.00;;;;;;5034100;28;20482;-71
2023/01/14 03:16:47;;;;;;;1.10;1.00;;;6.40;98.00;;;;;;5035454;28;20464;-71
2023/01/14 03:19:20;;;;;;;1.50;1.23;;;6.40;98.00;;;;;;5035590;28;20494;-71
2023/01/14 03:21:53;;;;;;;1.10;0.90;;;6.50;98.00;;;;;;5035426;28;20457;-71
2023/01/14 03:24:23;;;;;;;1.10;0.90;;;6.40;98.00;;;;;;5035400;28;20461;-71
2023/01/14 03:26:53;;;;;;;1.97;1.20;;;6.50;98.00;;;;;;5035563;28;20851;-71
2023/01/14 03:29:26;;;;;;;1.30;1.10;;;6.40;98.00;;;;;;5035363;28;20466;-71
2023/01/14 03:32:02;;;;;;;1.50;1.10;;;6.50;98.00;;;;;;5035483;28;20457;-71
2023/01/14 03:34:33;;;;;;;2.60;1.40;;;6.50;98.00;;;;;;5035110;28;20833;-71
2023/01/14 03:37:03;;;;;;;1.10;0.90;;;6.50;98.00;;;;;;5035099;28;20459;-71
2023/01/14 03:39:30;;;;;;;2.13;1.10;;;6.50;98.00;;;;;;5034812;28;20466;-71
2023/01/14 03:42:20;;;;;;;9.60;1.87;;;6.50;98.00;;;;;;5034893;28;20953;-71
2023/01/14 03:44:58;;;;;;;1.20;1.00;;;6.50;98.00;;;;;;5034918;28;20462;-71
2023/01/14 03:47:29;;;;;;;1.37;1.23;;;6.50;98.00;;;;;;5034686;28;20463;-71
2023/01/14 03:49:59;;;;;;;1.10;1.00;;;6.60;98.00;;;;;;5034677;28;20460;-71
2023/01/14 03:52:40;;;;;;;1.20;1.10;;;6.60;98.00;;;;;;5034522;28;20457;-71
2023/01/14 03:55:14;;;;;;;1.20;1.00;;;6.60;98.00;;;;;;5034851;28;20457;-71
2023/01/14 03:57:47;;;;;;;1.10;1.00;;;6.60;98.00;;;;;;5034467;28;20463;-71
2023/01/14 04:00:21;;;;;;;1.10;1.00;;;6.60;98.00;;;;;;5034562;28;20972;-71
2023/01/14 04:02:51;;;;;;;1.40;1.03;;;6.70;98.00;;;;;;5034583;28;20790;-71
2023/01/14 04:05:19;;;;;;;1.13;0.97;;;6.70;98.00;;;;;;5034506;28;20463;-71
2023/01/14 04:07:49;;;;;;;1.30;1.00;;;6.70;98.00;;;;;;5034470;28;20502;-71
2023/01/14 04:10:17;;;;;;;1.40;1.20;;;6.60;98.00;;;;;;5034380;28;20463;-71
2023/01/14 04:15:25;;;;;;;1.10;1.00;;;6.60;98.00;;;;;;5033277;28;20457;-72
2023/01/14 04:17:54;;;;;;;3.33;1.30;;;6.70;98.00;;;;;;5034533;28;20453;-71
2023/01/14 04:20:21;;;;;;;1.20;1.10;;;6.60;98.00;;;;;;5034289;28;20456;-71
2023/01/14 04:22:51;;;;;;;1.50;1.03;;;6.60;98.00;;;;;;5034414;28;20461;-71
2023/01/14 04:25:18;;;;;;;1.93;1.00;;;6.60;98.00;;;;;;5034005;28;20449;-71
2023/01/14 04:27:45;;;;;;;1.10;1.00;;;6.50;98.00;;;;;;5034330;28;20980;-71
2023/01/14 04:30:13;;;;;;;1.20;1.10;;;6.60;98.00;;;;;;5034309;28;20458;-71
2023/01/14 04:32:40;;;;;;;1.10;1.00;;;6.60;98.00;;;;;;5034281;28;20451;-71
2023/01/14 04:35:10;;;;;;;2.27;1.30;;;6.60;98.00;;;;;;5033991;28;20488;-71
2023/01/14 04:37:37;;;;;;;2.07;1.27;;;6.60;98.00;;;;;;5033974;28;20468;-71
2023/01/14 04:40:05;;;;;;;1.20;1.00;;;6.60;98.00;;;;;;5033579;28;20461;-71
2023/01/14 04:42:31;;;;;;;1.10;1.00;;;6.70;98.00;;;;;;5033730;28;20468;-71
2023/01/14 04:45:00;;;;;;;1.30;1.10;;;6.70;98.00;;;;;;5033734;28;20459;-71
2023/01/14 04:47:28;;;;;;;2.63;1.20;;;6.70;98.00;;;;;;5033564;28;20543;-71
2023/01/14 04:49:56;;;;;;;1.10;0.90;;;6.70;98.00;;;;;;5033776;28;20482;-71
2023/01/14 04:52:25;;;;;;;1.20;1.00;;;6.70;98.00;;;;;;5033519;28;20460;-71
2023/01/14 04:54:52;;;;;;;1.90;1.30;;;6.70;98.00;;;;;;5033493;28;20490;-71
2023/01/14 04:57:19;;;;;;;1.70;1.10;;;6.70;98.00;;;;;;5033552;28;20836;-71
2023/01/14 04:59:46;;;;;;;1.10;1.00;;;6.70;98.00;;;;;;5033437;28;20450;-71
2023/01/14 05:02:16;;;;;;;1.10;1.00;;;6.80;98.00;;;;;;5033427;28;20456;-71
2023/01/14 05:04:43;;;;;;;2.17;1.10;;;6.70;98.00;;;;;;5033386;28;20796;-71
2023/01/14 05:07:10;;;;;;;6.30;1.53;;;6.70;98.00;;;;;;5033303;28;20459;-71
2023/01/14 05:09:39;;;;;;;1.10;0.90;;;6.80;98.00;;;;;;5033132;28;20481;-71
2023/01/14 05:12:06;;;;;;;1.10;1.00;;;6.80;98.00;;;;;;5033299;28;20452;-71
2023/01/14 05:14:36;;;;;;;1.40;1.13;;;6.90;98.00;;;;;;5033000;28;20492;-71
2023/01/14 05:17:03;;;;;;;1.10;1.00;;;6.90;98.00;;;;;;5033215;28;20458;-71
2023/01/14 05:19:30;;;;;;;1.20;1.00;;;6.90;98.00;;;;;;5033180;28;20460;-71
2023/01/14 05:21:57;;;;;;;1.30;1.07;;;6.90;98.00;;;;;;5032940;28;20463;-71
2023/01/14 05:24:24;;;;;;;1.10;1.00;;;6.90;98.00;;;;;;5033194;28;20455;-71
2023/01/14 05:26:55;;;;;;;1.20;1.07;;;6.90;98.00;;;;;;5033246;28;20925;-71
2023/01/14 05:29:22;;;;;;;1.10;1.00;;;6.90;98.00;;;;;;5033274;28;20494;-71
2023/01/14 05:31:49;;;;;;;1.30;1.20;;;7.00;98.00;;;;;;5033144;28;20443;-71
2023/01/14 05:34:18;;;;;;;1.30;1.20;;;7.10;98.00;;;;;;5033002;28;20514;-71
2023/01/14 05:36:46;;;;;;;2.47;1.23;;;7.10;98.00;;;;;;5031522;28;20479;-71
2023/01/14 05:39:14;;;;;;;2.13;1.00;;;7.10;98.00;;;;;;5032819;28;20463;-71
2023/01/14 05:45:37;;;;;;;7.90;1.00;;;7.10;98.00;;;;;;5032506;28;20481;-71
2023/01/14 05:47:23;;;;;;;1.30;1.00;;;7.10;98.00;;;;;;5007442;28;20477;-71
2023/01/14 05:49:51;;;;;;;1.20;1.00;;;7.10;98.00;;;;;;5032439;28;20543;-71
2023/01/14 05:52:18;;;;;;;1.87;1.47;;;7.00;98.00;;;;;;5032334;28;20471;-71
2023/01/14 05:54:45;;;;;;;1.17;1.07;;;7.00;98.00;;;;;;5032370;28;20841;-71
2023/01/14 05:57:14;;;;;;;1.10;1.00;;;7.00;98.00;;;;;;5032255;28;20461;-71
2023/01/14 05:59:43;;;;;;;1.57;1.03;;;7.00;98.00;;;;;;5032263;28;20974;-71
2023/01/14 06:07:51;;;;;;;1.10;0.90;;;6.90;98.00;;;;;;4990287;28;20609;-71
2023/01/14 06:10:18;;;;;;;1.20;1.00;;;6.90;98.00;;;;;;5021824;28;20459;-71
2023/01/14 06:12:58;;;;;;;1.30;1.10;;;6.80;98.00;;;;;;5032005;28;20463;-71
2023/01/14 06:15:33;;;;;;;1.10;0.90;;;6.80;98.00;;;;;;5032110;28;20575;-71
2023/01/14 06:18:09;;;;;;;1.40;1.10;;;6.80;98.00;;;;;;5032231;28;20525;-71
2023/01/14 06:20:37;;;;;;;1.30;1.07;;;6.80;98.00;;;;;;5032170;28;20458;-71
2023/01/14 06:23:04;;;;;;;1.90;1.13;;;6.80;98.00;;;;;;5032253;28;20447;-71
2023/01/14 06:25:31;;;;;;;2.93;1.50;;;6.80;98.00;;;;;;5031628;28;20463;-71
2023/01/14 06:28:00;;;;;;;2.80;1.23;;;6.80;98.00;;;;;;5032261;28;20901;-71
2023/01/14 06:30:30;;;;;;;1.20;1.00;;;6.80;98.00;;;;;;5014322;28;20459;-71
2023/01/14 06:32:57;;;;;;;1.30;1.10;;;6.80;98.00;;;;;;5032299;28;20510;-71
2023/01/14 06:35:24;;;;;;;2.73;1.30;;;6.80;98.00;;;;;;5031925;28;20490;-71
2023/01/14 06:37:51;;;;;;;1.30;1.00;;;6.80;98.00;;;;;;5031972;28;20451;-71
2023/01/14 06:40:19;;;;;;;1.53;1.17;;;6.80;98.00;;;;;;5031556;28;20448;-71
2023/01/14 06:42:47;;;;;;;1.20;1.10;;;6.70;98.00;;;;;;5031677;28;20448;-71
2023/01/14 06:45:14;;;;;;;1.30;1.03;;;6.70;98.00;;;;;;5031706;28;20455;-71
2023/01/14 06:47:42;;;;;;;1.73;1.13;;;6.70;98.00;;;;;;5031716;28;20548;-71
2023/01/14 06:50:11;;;;;;;1.10;0.90;;;6.70;98.00;;;;;;5036054;28;20469;-71
2023/01/14 06:52:38;;;;;;;1.10;0.90;;;6.70;98.00;;;;;;5035724;28;20799;-71
2023/01/14 06:55:06;;;;;;;1.10;1.00;;;6.70;98.00;;;;;;5035872;28;20486;-71
2023/01/14 06:57:33;;;;;;;1.10;0.93;;;6.70;98.00;;;;;;5035595;28;20455;-71
2023/01/14 07:00:00;;;;;;;2.33;1.20;;;6.60;98.00;;;;;;5035652;28;20968;-73
2023/01/14 07:02:27;;;;;;;1.30;1.10;;;6.60;98.00;;;;;;5035789;28;20455;-72
2023/01/14 07:04:55;;;;;;;1.30;1.23;;;6.70;98.00;;;;;;5035636;28;20467;-71
2023/01/14 07:07:23;;;;;;;3.77;1.30;;;6.70;98.00;;;;;;5035831;28;20949;-72
2023/01/14 07:09:50;;;;;;;2.33;1.30;;;6.80;98.00;;;;;;5018025;28;20471;-72
2023/01/14 07:12:17;;;;;;;4.13;1.47;;;6.90;98.00;;;;;;5035577;28;20459;-72
2023/01/14 07:14:44;;;;;;;1.53;1.20;;;6.90;98.00;;;;;;5035088;28;20486;-73
2023/01/14 07:17:11;;;;;;;4.90;1.40;;;6.80;98.00;;;;;;5034881;28;20864;-72
2023/01/14 07:19:38;;;;;;;1.47;1.47;;;6.80;98.00;;;;;;5034738;28;20463;-72
2023/01/14 07:22:07;;;;;;;1.20;1.17;;;6.80;98.00;;;;;;5035062;28;20466;-73
2023/01/14 07:24:37;;;;;;;2.53;1.53;;;6.80;98.00;;;;;;5035219;28;20461;-72
2023/01/14 07:27:04;;;;;;;1.30;1.10;;;6.70;98.00;;;;;;5035471;28;20804;-73
2023/01/14 07:29:31;;;;;;;1.93;1.30;;;6.80;98.00;;;;;;5035279;28;20456;-72
2023/01/14 07:32:00;;;;;;;1.30;1.23;;;6.80;98.00;;;;;;5035339;28;20467;-72
2023/01/14 07:34:28;;;;;;;1.40;1.20;;;6.80;98.00;;;;;;5035426;28;20986;-72
2023/01/14 07:36:55;;;;;;;2.07;1.60;;;6.70;98.00;;;;;;5035186;28;20465;-72
2023/01/14 07:39:23;;;;;;;3.87;1.80;;;6.70;98.00;;;;;;5034943;28;20456;-72
2023/01/14 07:41:50;;;;;;;2.73;1.50;;;6.80;98.00;;;;;;5034986;28;20937;-72
2023/01/14 07:44:23;;;;;;;3.60;1.90;;;6.80;98.00;;;;;;5035054;28;20455;-72
2023/01/14 07:46:53;;;;;;;2.20;1.37;;;6.90;98.00;;;;;;5034775;28;20481;-72
2023/01/14 07:49:20;;;;;;;1.50;1.23;;;6.90;98.00;;;;;;5034924;28;20500;-72
2023/01/14 07:51:51;;;;;;;1.70;1.20;;;6.90;98.00;;;;;;5034856;28;20971;-72
2023/01/14 07:54:19;;;;;;;1.83;1.70;;;6.70;98.00;;;;;;5034627;28;20499;-71
2023/01/14 07:56:48;;;;;;;3.50;1.80;;;6.70;98.00;;;;;;5034672;28;20456;-71
2023/01/14 07:59:16;;;;;;;4.90;1.90;;;6.60;98.00;;;;;;5033879;28;20451;-72
2023/01/14 08:01:43;;;;;;;3.10;1.97;;;6.70;98.00;;;;;;5034356;28;20454;-71
2023/01/14 08:04:10;;;;;;;1.40;1.10;;;6.70;98.00;;;;;;5034623;28;20457;-73
2023/01/14 08:06:37;;;;;;;1.43;1.10;;;6.80;98.00;;;;;;5034351;28;20456;-72
2023/01/14 08:09:04;;;;;;;1.40;1.07;;;6.90;98.00;;;;;;5034292;28;20938;-72
2023/01/14 08:11:33;;;;;;;1.97;1.10;;;7.00;98.00;;;;;;5034011;28;20467;-73
2023/01/14 08:14:03;;;;;;;1.40;1.10;;;7.10;98.00;;;;;;5034351;28;20449;-71
2023/01/14 08:16:30;;;;;;;1.43;1.00;;;7.20;98.00;;;;;;5034343;28;20472;-72
2023/01/14 08:18:57;;;;;;;1.37;1.17;;;7.20;98.00;;;;;;5034226;28;20464;-72
2023/01/14 08:21:24;;;;;;;2.07;1.23;;;7.20;98.00;;;;;;5034234;28;20452;-72
2023/01/14 08:23:51;;;;;;;2.70;1.90;;;7.20;98.00;;;;;;5034270;28;20463;-72
2023/01/14 08:26:19;;;;;;;2.90;1.33;;;7.30;98.00;;;;;;5034190;28;20465;-71
2023/01/14 08:28:46;;;;;;;1.10;1.07;;;7.30;98.00;;;;;;5034129;28;20468;-72
2023/01/14 08:31:17;;;;;;;1.20;1.10;;;7.30;98.00;;;;;;5034144;28;20461;-71
2023/01/14 08:33:46;;;;;;;1.40;1.20;;;7.40;98.00;;;;;;5033821;28;20466;-72
2023/01/14 08:36:14;;;;;;;2.13;1.40;;;7.40;98.00;;;;;;5033665;28;20483;-72
2023/01/14 08:38:44;;;;;;;4.70;1.40;;;7.50;98.00;;;;;;5033887;28;20458;-72
2023/01/14 08:41:14;;;;;;;1.40;1.20;;;7.70;98.00;;;;;;5033710;28;20558;-72
2023/01/14 08:43:42;;;;;;;2.00;1.80;;;7.80;98.00;;;;;;5033781;28;20459;-71
2023/01/14 08:46:13;;;;;;;8.50;3.93;;;7.90;98.00;;;;;;5033433;28;20457;-72
2023/01/14 08:48:41;;;;;;;3.20;1.97;;;8.00;98.00;;;;;;5033327;28;20550;-73
2023/01/14 08:51:20;;;;;;;1.60;1.50;;;7.90;98.00;;;;;;5033598;28;20472;-71
2023/01/14 08:53:47;;;;;;;1.60;1.40;;;7.80;98.00;;;;;;5033470;28;20541;-71
2023/01/14 08:56:16;;;;;;;1.30;1.20;;;7.70;98.00;;;;;;5033269;28;20484;-72
2023/01/14 08:58:43;;;;;;;5.97;1.70;;;7.60;98.00;;;;;;5033438;28;20467;-72
2023/01/14 09:01:11;;;;;;;3.53;1.30;;;7.70;98.00;;;;;;5033588;28;20821;-72
2023/01/14 09:03:38;;;;;;;2.30;1.13;;;7.70;98.00;;;;;;5033498;28;20864;-71
2023/01/14 09:06:09;;;;;;;1.73;1.50;;;7.70;98.00;;;;;;5033536;28;20468;-72
2023/01/14 09:17:10;;;;;;;2.93;1.60;;;8.20;98.00;;;;;;5033286;28;20445;-71
2023/01/14 09:19:41;;;;;;;2.57;1.80;;;8.30;98.00;;;;;;5033275;28;20882;-72
2023/01/14 09:22:12;;;;;;;4.00;1.70;;;8.30;98.00;;;;;;5033180;28;20862;-71
2023/01/14 09:24:39;;;;;;;1.50;1.40;;;8.40;98.00;;;;;;5033121;28;20458;-71
2023/01/14 09:27:06;;;;;;;3.77;2.00;;;8.40;98.00;;;;;;5033234;28;20464;-72
2023/01/14 09:29:33;;;;;;;2.70;1.70;;;8.50;98.00;;;;;;5033038;28;21009;-72
2023/01/14 09:32:00;;;;;;;3.43;1.70;;;8.60;98.00;;;;;;5033270;28;20468;-71
2023/01/14 09:34:28;;;;;;;1.83;1.50;;;8.50;98.00;;;;;;5033110;28;20464;-71
2023/01/14 09:36:55;;;;;;;3.23;1.40;;;8.60;98.00;;;;;;5032849;28;20461;-71
2023/01/14 09:39:24;;;;;;;2.67;1.40;;;8.60;98.00;;;;;;5032722;28;20455;-71
2023/01/14 09:41:54;;;;;;;1.97;1.43;;;8.60;98.00;;;;;;5032525;28;20501;-72
2023/01/14 09:44:22;;;;;;;1.83;1.40;;;8.50;98.00;;;;;;5030497;28;20541;-72
2023/01/14 09:46:51;;;;;;;1.93;1.47;;;8.60;98.00;;;;;;5031879;28;21002;-72
2023/01/14 09:49:22;;;;;;;2.80;1.63;;;8.50;98.00;;;;;;5031836;28;20690;-71
2023/01/14 09:52:12;;;;;;;1.57;1.10;;;8.60;98.00;;;;;;5031624;28;20457;-71
2023/01/14 09:54:52;;;;;;;3.67;1.17;;;8.70;98.00;;;;;;5031864;28;20462;-71
2023/01/14 09:57:24;;;;;;;1.27;1.10;;;8.80;98.00;;;;;;5031607;28;20459;-72
2023/01/14 09:59:58;;;;;;;2.63;1.40;;;8.80;98.00;;;;;;5031911;28;20473;-70
2023/01/14 10:02:30;;;;;;;2.17;1.23;;;8.80;98.00;;;;;;5031596;28;20468;-70
2023/01/14 10:05:17;;;;;;;1.70;1.40;;;9.40;98.00;;;;;;5031554;28;20957;-68
2023/01/14 10:07:46;;;;;;;2.53;1.37;;;10.60;98.00;;;;;;5031543;28;20459;-73
2023/01/14 10:10:26;;;;;;;1.87;1.13;;;10.90;98.00;;;;;;5031463;28;20474;-73
2023/01/14 10:12:56;;;;;;;2.50;1.30;;;10.70;98.00;;;;;;5031656;28;20532;-73
2023/01/14 10:15:36;;;;;;;3.60;1.40;;;10.60;98.00;;;;;;5031342;28;20479;-72
2023/01/14 10:18:12;;;;;;;1.73;1.33;;;10.50;98.00;;;;;;5031454;28;20466;-73
2023/01/14 10:20:49;;;;;;;2.37;1.40;;;10.40;98.00;;;;;;5031393;28;20529;-73
2023/01/14 10:23:19;;;;;;;2.40;1.13;;;10.20;98.00;;;;;;5031081;28;20471;-72
2023/01/14 10:25:50;;;;;;;2.23;1.40;;;10.10;98.00;;;;;;5031364;28;20454;-73
2023/01/14 10:28:21;;;;;;;1.70;1.17;;;10.10;98.00;;;;;;5031301;28;21035;-73
2023/01/14 10:30:50;;;;;;;1.60;1.20;;;10.10;98.00;;;;;;5031573;28;20470;-73
2023/01/14 10:33:19;;;;;;;1.47;1.20;;;10.10;98.00;;;;;;5031615;28;20455;-73
2023/01/14 10:35:52;;;;;;;2.07;1.23;;;10.20;98.00;;;;;;5031545;28;20856;-73
2023/01/14 10:38:23;;;;;;;1.20;1.10;;;10.00;98.00;;;;;;5031419;28;20487;-73
2023/01/14 10:40:55;;;;;;;1.40;1.03;;;10.10;98.00;;;;;;5031404;28;20470;-73
2023/01/14 10:43:32;;;;;;;2.37;1.10;;;10.10;98.00;;;;;;5031178;28;20455;-73
2023/01/14 10:45:59;;;;;;;1.97;1.47;;;10.20;98.00;;;;;;5028690;28;20469;-73
2023/01/14 10:48:29;;;;;;;1.43;1.33;;;10.30;98.00;;;;;;5031083;28;20468;-73
2023/01/14 10:51:37;;;;;;;1.97;1.30;;;10.30;98.00;;;;;;5031132;28;20474;-73
2023/01/14 10:54:12;;;;;;;1.80;1.23;;;10.20;98.00;;;;;;5031134;28;20459;-72
2023/01/14 10:56:42;;;;;;;6.93;1.67;;;10.10;98.00;;;;;;5030838;28;20491;-73
2023/01/14 10:59:36;;;;;;;3.23;1.80;;;10.10;98.00;;;;;;5030909;28;20881;-73
2023/01/14 11:02:04;;;;;;;4.70;2.83;;;10.10;98.00;;;;;;5030983;28;20462;-73
2023/01/14 11:04:35;;;;;;;5.30;2.30;;;10.10;98.00;;;;;;5029719;28;20458;-73
2023/01/14 11:07:10;;;;;;;3.00;1.60;;;10.20;98.00;;;;;;5031121;28;20819;-73
2023/01/14 11:09:39;;;;;;;3.10;1.90;;;10.40;98.00;;;;;;5030615;28;20503;-73
2023/01/14 11:12:06;;;;;;;2.17;1.80;;;10.40;98.00;;;;;;5030855;28;20467;-73
2023/01/14 11:14:39;;;;;;;1.77;1.50;;;10.40;98.00;;;;;;5030810;28;20454;-73
2023/01/14 11:17:24;;;;;;;2.03;1.40;;;10.40;98.00;;;;;;5029560;28;21022;-73
2023/01/14 11:19:52;;;;;;;1.30;1.00;;;10.60;98.00;;;;;;5030571;28;20483;-73
2023/01/14 11:22:20;;;;;;;1.60;1.20;;;10.60;98.00;;;;;;5030702;28;20485;-73
2023/01/14 11:24:54;;;;;;;1.77;1.30;;;10.60;98.00;;;;;;5031090;28;20895;-73
2023/01/14 11:27:23;;;;;;;1.43;1.23;;;10.50;98.00;;;;;;5030708;28;20477;-73
2023/01/14 11:29:54;;;;;;;2.60;1.70;;;10.40;98.00;;;;;;5030872;28;20812;-73
2023/01/14 11:32:25;;;;;;;1.73;1.40;;;10.30;98.00;;;;;;5030823;28;20464;-73
2023/01/14 11:34:55;;;;;;;1.63;1.30;;;10.30;98.00;;;;;;5033002;28;20450;-73
2023/01/14 11:37:25;;;;;;;1.40;1.20;;;10.50;98.00;;;;;;5034590;28;20462;-73
2023/01/14 11:39:59;;;;;;;1.40;1.10;;;10.60;98.00;;;;;;5034443;28;20454;-73
2023/01/14 11:42:35;;;;;;;1.30;1.13;;;10.50;98.00;;;;;;5034231;28;20466;-73
2023/01/14 11:45:04;;;;;;;1.53;1.20;;;10.50;98.00;;;;;;5034247;28;20494;-73
2023/01/14 11:47:44;;;;;;;1.60;1.30;;;10.40;98.00;;;;;;5034293;28;20454;-73
2023/01/14 11:50:19;;;;;;;1.77;1.40;;;10.40;98.00;;;;;;5034121;28;20952;-73
2023/01/14 11:52:59;;;;;;;1.40;1.20;;;10.40;98.00;;;;;;5034136;28;20462;-73
2023/01/14 11:55:28;;;;;;;1.77;1.33;;;10.60;98.00;;;;;;5034170;28;20872;-74
2023/01/14 11:58:01;;;;;;;2.20;1.27;;;10.60;98.00;;;;;;5034160;28;20454;-73
2023/01/14 12:00:29;;;;;;;3.20;1.40;;;10.60;98.00;;;;;;5033935;28;20456;-74
2023/01/14 12:03:01;;;;;;;1.50;1.30;;;10.50;98.00;;;;;;5033905;28;20468;-73
2023/01/14 12:05:29;;;;;;;1.53;1.40;;;10.60;98.00;;;;;;5033898;28;20959;-73
2023/01/14 12:08:05;;;;;;;1.50;1.20;;;10.70;98.00;;;;;;5033776;28;20814;-73
2023/01/14 12:10:36;;;;;;;1.43;1.20;;;10.70;98.00;;;;;;5032835;28;20448;-73
2023/01/14 12:18:47;;;;;;;1.30;1.13;;;10.70;98.00;;;;;;5033785;28;20983;-73
2023/01/14 12:21:21;;;;;;;2.00;1.40;;;10.70;98.00;;;;;;5033649;28;20458;-73
2023/01/14 12:23:58;;;;;;;1.63;1.10;;;10.60;98.00;;;;;;5033870;28;20454;-72
2023/01/14 12:26:32;;;;;;;1.30;1.10;;;10.60;98.00;;;;;;5033631;28;20454;-73
2023/01/14 12:29:03;;;;;;;2.17;1.37;;;10.70;98.00;;;;;;5033589;28;20600;-74
2023/01/14 12:31:35;;;;;;;1.80;1.60;;;10.70;98.00;;;;;;5033348;28;20968;-73
2023/01/14 12:34:10;;;;;;;1.67;1.47;;;10.70;98.00;;;;;;5033619;28;20948;-73
2023/01/14 12:36:44;;;;;;;2.53;1.40;;;10.70;98.00;;;;;;5033342;28;20489;-73
2023/01/14 12:48:00;;;;;;;2.73;1.80;;;10.60;98.00;;;;;;5033108;28;20450;-73
2023/01/14 12:50:29;;;;;;;1.60;1.50;;;10.60;98.00;;;;;;5033246;28;20496;-73
2023/01/14 12:52:57;;;;;;;1.70;1.57;;;10.60;98.00;;;;;;5032996;28;20459;-73
2023/01/14 12:55:35;;;;;;;1.97;1.60;;;10.60;98.00;;;;;;5033127;28;20460;-73
2023/01/14 12:58:04;;;;;;;2.87;1.80;;;10.60;98.00;;;;;;5033007;28;20453;-73
2023/01/14 13:00:34;;;;;;;10.30;2.07;;;10.60;98.00;;;;;;5032744;28;20468;-73
2023/01/14 13:03:05;;;;;;;3.73;1.80;;;10.60;98.00;;;;;;5032680;28;20481;-73
2023/01/14 13:05:37;;;;;;;2.23;1.30;;;10.60;98.00;;;;;;5032658;28;20465;-73
2023/01/14 13:08:08;;;;;;;2.33;1.40;;;10.70;98.00;;;;;;5032671;28;20459;-73
2023/01/14 13:10:39;;;;;;;1.97;1.40;;;10.70;98.00;;;;;;5032538;28;20585;-73
2023/01/14 13:13:18;;;;;;;1.63;1.30;;;10.60;98.00;;;;;;5032637;28;20455;-73
2023/01/14 13:15:46;;;;;;;2.80;1.30;;;10.50;98.00;;;;;;5032517;28;20852;-72
2023/01/14 13:18:41;;;;;;;5.40;1.97;;;10.50;98.00;;;;;;5032550;28;20969;-73
2023/01/14 13:21:10;;;;;;;1.90;1.60;;;10.40;98.00;;;;;;5032351;28;20467;-73
2023/01/14 13:24:00;;;;;;;1.40;1.30;;;10.40;98.00;;;;;;5031010;28;20470;-73
2023/01/14 13:27:25;;;;;;;4.00;1.43;;;10.40;98.00;;;;;;5026622;28;20995;-73
2023/01/14 13:30:30;;;;;;;2.93;1.87;;;10.40;98.00;;;;;;5032106;28;20867;-73
2023/01/14 13:33:16;;;;;;;2.40;1.60;;;10.30;98.00;;;;;;5032313;28;20839;-72
2023/01/14 13:36:19;;;;;;;2.53;1.70;;;10.30;98.00;;;;;;5032401;28;20586;-73
2023/01/14 13:39:02;;;;;;;2.60;2.00;;;10.40;98.00;;;;;;5032287;28;20458;-73
2023/01/14 13:41:41;;;;;;;2.03;1.50;;;10.40;98.00;;;;;;5031821;28;20466;-73
2023/01/14 13:44:24;;;;;;;1.50;1.40;;;10.40;98.00;;;;;;5031938;28;20464;-73
2023/01/14 13:46:54;;;;;;;4.13;2.07;;;10.30;98.00;;;;;;5030159;28;20462;-73
2023/01/14 13:49:33;;;;;;;1.63;1.30;;;10.20;98.00;;;;;;5031256;28;20458;-73
2023/01/14 13:52:05;;;;;;;1.80;1.53;;;10.20;98.00;;;;;;5031046;28;20462;-72
2023/01/14 13:54:35;;;;;;;2.63;1.73;;;10.30;98.00;;;;;;5031821;28;20462;-73
2023/01/14 13:57:10;;;;;;;1.93;1.50;;;10.20;98.00;;;;;;5031412;28;20483;-73